Latest Weather Observations for Williamtown

IDN60901

Issued at 12:55 pm EDT Tuesday 25 November 2014 (issued every 10 minutes, with the page automatically refreshed every 10 minutes)

About weather observations | Map of Sydney area stations | Latest observations for Sydney area | Other Formats
Station Details ID: 061078 Name: WILLIAMTOWN RAAF Lat: -32.79 Lon: 151.84 Height: 9.0 m
Data from the previous 72 hours. | See also: Recent months at Williamtown
Date/Time
EDT
Tmp

°C
App
Tmp
°C
Dew
Point
°C
Rel
Hum
%
Delta-T

°C
Wind Press
QNH
hPa
Press
MSL
hPa
Rain
since
9 am
mm
Dir
 
Spd
km/h
Gust
km/h
Spd
kts
Gust
kts
25/12:32pm 24.1 20.3 17.1 65 4.3 S 33 52 18 28 1015.4 - 0.0
25/12:30pm 24.4 20.4 16.8 62 4.7 S 33 41 18 22 1015.2 - 0.0
25/12:14pm 26.4 22.6 16.7 55 6.0 S 32 48 17 26 1014.9 - 0.0
25/12:00pm 28.0 25.5 15.2 45 7.8 SSW 22 30 12 16 1014.6 1014.6 0.0
25/11:30am 28.2 26.4 15.6 46 7.7 WSW 19 30 10 16 1014.5 - 0.0
25/11:00am 28.3 27.6 17.3 51 6.9 W 17 28 9 15 1014.3 - 0.0
25/10:30am 26.3 25.8 17.7 59 5.4 W 17 24 9 13 1014.1 - 0.0
25/10:00am 25.5 25.3 18.6 65 4.4 W 17 24 9 13 1013.8 - 0.0
25/09:30am 25.3 24.9 20.1 73 3.4 WNW 22 28 12 15 1013.3 - 0.0
25/09:00am 24.6 25.1 20.1 76 2.9 WSW 17 24 9 13 1012.9 1012.9 17.4
25/08:30am 23.8 24.6 19.8 78 2.6 W 15 22 8 12 1012.0 - 17.4
25/08:00am 23.7 26.3 19.2 76 2.9 NNW 4 9 2 5 1011.0 - 17.4
25/07:30am 23.1 22.0 19.5 80 2.3 N 24 30 13 16 1010.5 - 17.4
25/07:00am 23.1 22.0 19.5 80 2.3 WNW 24 32 13 17 1011.1 - 17.4
25/06:30am 22.9 21.9 19.6 81 2.1 WNW 24 33 13 18 1010.8 - 17.4
25/06:00am 22.9 21.3 19.3 80 2.3 WNW 26 33 14 18 1010.6 1010.6 17.4
25/05:30am 22.6 22.9 19.6 83 1.9 NW 17 24 9 13 1010.2 - 17.4
25/05:00am 22.9 24.1 19.8 83 2.0 NNW 13 19 7 10 1010.1 - 17.4
25/04:30am 22.7 24.7 20.7 88 1.3 NNW 11 17 6 9 1010.0 - 17.0
25/04:00am 22.8 24.2 21.0 89 1.2 NNW 15 19 8 10 1010.2 - 17.0
25/03:30am 22.6 25.2 21.2 92 0.9 NNW 9 15 5 8 1009.8 - 17.0
25/03:00am 22.6 26.0 21.7 95 0.6 NW 6 11 3 6 1009.6 1009.6 17.0
25/02:30am 22.4 25.7 21.8 96 0.4 N 7 9 4 5 1010.0 - 17.0
25/02:00am 22.5 27.1 21.7 95 0.5 CALM 0 6 0 3 1010.1 - 17.0
25/01:30am 22.8 24.9 21.7 93 0.7 WNW 13 19 7 10 1010.1 - 16.8
25/01:00am 23.0 23.8 21.8 93 0.8 WNW 20 28 11 15 1010.5 - 16.4
25/12:30am 22.9 23.7 21.7 93 0.8 W 20 30 11 16 1011.3 - 15.6
25/12:00am 22.7 24.9 21.9 95 0.5 WNW 13 17 7 9 1011.0 1011.0 14.6
 
Date/Time
EDT
Tmp

°C
App
Tmp
°C
Dew
Point
°C
Rel
Hum
%
Delta-T

°C
Wind Press
QNH
hPa
Press
MSL
hPa
Rain
since
9 am
mm
Dir
 
Spd
km/h
Gust
km/h
Spd
kts
Gust
kts
24/11:30pm 22.7 24.5 21.8 95 0.6 N 15 20 8 11 1011.1 - 14.6
24/11:00pm 22.5 25.9 21.6 95 0.6 NNW 6 9 3 5 1010.3 - 13.4
24/10:30pm 22.4 25.5 21.5 95 0.6 N 7 11 4 6 1009.9 - 13.4
24/10:00pm 22.4 26.9 21.6 95 0.5 CALM 0 0 0 0 1009.2 - 13.4
24/09:30pm 22.5 27.0 21.6 95 0.6 CALM 0 0 0 0 1008.8 - 13.4
24/09:00pm 22.6 27.2 21.7 95 0.6 CALM 0 0 0 0 1009.0 1009.0 13.0
24/08:30pm 22.6 25.5 21.8 95 0.5 NE 9 13 5 7 1009.1 - 12.8
24/08:06pm 22.5 24.6 21.7 95 0.5 N 13 19 7 10 1010.3 - 12.2
24/08:00pm 22.6 25.0 21.5 93 0.7 NNW 11 15 6 8 1010.2 - 12.2
24/07:38pm 22.7 21.9 21.6 93 0.7 NW 28 37 15 20 1011.5 - 8.8
24/07:30pm 22.7 24.5 21.2 91 1.0 E 13 20 7 11 1008.2 - 8.8
24/07:00pm 23.8 25.3 21.2 85 1.7 E 15 22 8 12 1007.5 - 8.8
24/06:30pm 23.6 23.4 21.2 86 1.6 SSW 24 32 13 17 1007.7 - 8.2
24/06:29pm 23.5 23.6 21.1 86 1.6 SSW 22 30 12 16 1007.9 - 8.2
24/06:07pm 22.3 20.2 20.9 92 0.9 WSW 33 52 18 28 1007.8 - 8.2
24/06:00pm 22.7 27.2 21.6 93 0.7 CALM 0 0 0 0 1005.4 1005.4 8.2
24/05:30pm 21.9 22.6 20.4 91 1.0 SSW 17 22 9 12 1005.4 - 8.2
24/05:16pm 21.3 20.6 20.2 93 0.7 ENE 24 35 13 19 1006.5 - 8.2
24/05:00pm 21.4 21.1 19.5 89 1.2 N 20 35 11 19 1007.8 - 8.0
24/04:55pm 21.1 19.7 18.9 87 1.4 NNW 24 35 13 19 1008.8 - 6.8
24/04:49pm 19.4 9.6 19.2 99 0.1 NNW 69 98 37 53 1008.7 - 3.2
24/04:48pm 20.0 15.6 19.4 96 0.4 NNW 41 98 22 53 1008.9 - 1.2
24/04:46pm 23.9 20.2 18.4 71 3.5 NNW 35 52 19 28 1009.2 - 0.4
24/04:41pm 26.4 24.3 20.6 70 3.8 WNW 32 48 17 26 1009.9 - 0.2
24/04:36pm 25.4 24.4 21.2 77 2.8 WNW 28 46 15 25 1009.5 - 0.2
24/04:30pm 24.4 25.5 21.2 82 2.1 SSE 17 19 9 10 1006.8 - 0.2
24/04:00pm 25.5 25.9 20.6 74 3.2 E 19 24 10 13 1006.3 - 0.2
24/03:30pm 26.7 26.8 20.3 68 4.2 SE 20 28 11 15 1006.5 - 0.2
24/03:00pm 26.7 27.1 20.6 69 4.0 SE 19 26 10 14 1007.6 1007.6 0.2
24/02:30pm 25.9 26.2 20.4 71 3.6 ESE 19 24 10 13 1008.6 - 0.2
24/02:00pm 25.1 25.4 20.5 75 3.0 SE 19 24 10 13 1009.6 - 0.2
24/01:30pm 24.4 25.2 20.6 79 2.5 SE 17 24 9 13 1010.3 - 0.2
24/01:00pm 24.5 25.6 20.5 78 2.6 SE 15 24 8 13 1011.0 - 0.2
24/12:30pm 23.8 24.4 20.3 81 2.3 SSE 17 24 9 13 1011.4 - 0.2
24/12:00pm 23.4 23.5 20.3 83 2.0 SE 20 26 11 14 1011.9 1011.9 0.2
24/11:30am 23.2 24.2 20.3 84 1.9 S 15 20 8 11 1013.0 - 0.2
24/11:00am 23.7 24.0 20.3 81 2.2 SSE 19 24 10 13 1013.1 - 0.2
24/10:30am 23.9 23.9 20.2 80 2.4 SSE 20 30 11 16 1013.3 - 0.0
24/10:00am 23.2 22.3 19.8 81 2.2 S 24 30 13 16 1013.9 - 0.0
24/09:30am 22.8 21.9 19.8 83 1.9 S 24 30 13 16 1014.3 - 0.0
24/09:00am 23.4 23.5 20.3 83 2.0 S 20 28 11 15 1014.1 1014.1 12.6
24/08:30am 23.0 23.0 20.1 84 1.9 S 20 28 11 15 1014.0 - 12.6
24/08:00am 22.6 24.5 20.6 88 1.3 SSW 11 17 6 9 1014.2 - 12.6
24/07:30am 22.1 22.5 20.6 91 1.0 S 19 26 10 14 1013.4 - 12.6
24/07:00am 21.4 23.4 20.8 96 0.4 S 11 15 6 8 1013.3 - 12.6
24/06:30am 21.1 21.8 20.5 96 0.4 S 17 22 9 12 1013.2 - 12.6
24/06:00am 20.9 21.9 20.3 96 0.4 SSE 15 17 8 9 1012.9 1012.9 12.6
24/05:30am 20.3 21.8 19.7 96 0.4 SW 11 15 6 8 1013.1 - 12.6
24/05:12am 20.3 22.5 19.7 96 0.4 WNW 7 11 4 6 1013.0 - 12.6
24/05:00am 20.5 24.1 19.7 95 0.5 CALM 0 0 0 0 1012.8 - 12.6
24/04:30am 21.0 24.7 19.9 93 0.7 CALM 0 0 0 0 1012.4 - 12.6
24/04:00am 21.5 23.2 20.1 92 0.9 SSE 11 15 6 8 1012.5 - 12.6
24/03:30am 21.7 22.2 20.1 91 1.0 SE 17 24 9 13 1012.5 - 12.6
24/03:00am 21.8 22.3 20.1 90 1.1 E 17 22 9 12 1012.6 1012.6 12.6
24/02:30am 21.8 23.5 20.1 90 1.1 ESE 11 17 6 9 1011.9 - 12.6
24/02:00am 21.9 23.7 20.4 91 1.0 ESE 11 15 6 8 1011.6 - 12.6
24/01:30am 21.8 22.9 20.4 92 0.9 NE 15 22 8 12 1012.3 - 12.6
24/01:00am 22.1 23.9 20.4 90 1.1 S 11 15 6 8 1011.8 - 12.6
24/12:30am 21.7 23.9 20.5 93 0.8 W 9 15 5 8 1012.6 - 12.6
24/12:00am 21.5 23.7 20.3 93 0.8 S 9 15 5 8 1012.6 1012.6 12.6
 
Date/Time
EDT
Tmp

°C
App
Tmp
°C
Dew
Point
°C
Rel
Hum
%
Delta-T

°C
Wind Press
QNH
hPa
Press
MSL
hPa
Rain
since
9 am
mm
Dir
 
Spd
km/h
Gust
km/h
Spd
kts
Gust
kts
23/11:30pm 21.7 24.8 20.3 92 0.9 S 4 11 2 6 1014.0 - 12.6
23/11:00pm 22.1 23.8 20.2 89 1.2 SSW 11 17 6 9 1014.2 - 12.6
23/10:30pm 24.9 21.8 18.4 67 4.1 SSW 32 43 17 23 1013.9 - 12.6
23/10:25pm 26.8 23.7 16.6 53 6.3 SSW 28 43 15 23 1013.7 - 12.6
23/10:00pm 27.2 26.3 16.9 53 6.4 ENE 17 24 9 13 1011.8 - 12.6
23/09:30pm 26.9 25.9 17.5 56 5.9 E 19 24 10 13 1011.0 - 12.6
23/09:00pm 28.7 26.7 15.5 44 8.1 NE 20 28 11 15 1010.6 1010.6 12.6
23/08:30pm 26.6 24.2 17.3 56 5.8 E 26 41 14 22 1010.8 - 12.6
23/08:20pm 25.8 23.3 18.0 62 4.9 E 28 35 15 19 1011.2 - 12.6
23/08:07pm 27.5 22.9 16.2 50 7.0 E 35 50 19 27 1010.5 - 12.6
23/08:00pm 25.9 22.6 18.0 61 5.0 E 32 37 17 20 1011.3 - 12.4
23/07:37pm 23.8 23.1 18.7 73 3.2 S 20 43 11 23 1012.4 - 9.4
23/07:30pm 23.8 19.2 19.6 77 2.7 WSW 43 61 23 33 1012.0 - 2.2
23/07:26pm 26.1 21.0 18.6 63 4.8 WSW 43 61 23 33 1011.8 - 0.2
23/07:22pm 31.5 25.7 13.8 34 10.7 SW 37 56 20 30 1011.2 - 0.0
23/07:00pm 32.7 29.1 15.3 35 10.8 S 28 43 15 23 1009.0 - 0.0
23/06:52pm 33.5 30.7 15.4 33 11.3 S 24 33 13 18 1008.7 - 0.0
23/06:30pm 34.6 33.3 17.2 35 11.2 NE 20 30 11 16 1006.7 - 0.0
23/06:00pm 35.9 34.4 15.4 29 12.9 NE 17 32 9 17 1006.6 1006.6 0.0
23/05:30pm 35.7 30.9 13.0 25 13.8 NE 30 39 16 21 1006.5 - 0.0
23/05:00pm 35.0 31.5 15.4 31 12.3 NE 28 37 15 20 1006.6 - 0.0
23/04:30pm 35.1 32.3 16.4 32 11.9 NE 26 32 14 17 1006.8 - 0.0
23/04:00pm 37.8 35.7 15.1 26 14.3 NE 20 28 11 15 1007.0 - 0.0
23/03:30pm 37.5 34.4 15.6 27 13.9 ENE 26 32 14 17 1007.5 - 0.0
23/03:00pm 36.8 35.0 15.9 29 13.3 ENE 20 26 11 14 1008.2 1008.2 0.0
23/02:30pm 38.0 37.9 17.8 30 13.2 NE 15 20 8 11 1008.6 - 0.0
23/02:00pm 37.6 38.2 18.5 32 12.6 ENE 13 19 7 10 1009.1 - 0.0
23/01:30pm 38.6 39.5 16.6 27 14.2 N 7 13 4 7 1009.6 - 0.0
23/01:00pm 36.8 37.4 16.9 31 12.8 N 9 17 5 9 1010.1 - 0.0
23/12:30pm 35.3 36.1 17.3 34 11.6 N 9 17 5 9 1010.6 - 0.0
23/12:00pm 33.2 34.3 18.8 42 9.4 NNW 11 15 6 8 1011.1 1011.1 0.0
23/11:30am 32.7 34.3 19.1 44 8.9 NNW 9 15 5 8 1011.3 - 0.0
23/11:00am 30.0 31.6 20.0 55 6.6 N 11 15 6 8 1011.6 - 0.0
23/10:30am 29.5 30.8 19.4 54 6.6 NW 11 17 6 9 1011.6 - 0.0
23/10:00am 27.8 28.1 18.8 58 5.8 WNW 15 19 8 10 1012.0 - 0.0
23/09:30am 25.1 25.6 19.3 70 3.7 NW 15 19 8 10 1012.2 - 0.0
23/09:00am 23.8 25.5 19.4 76 2.8 N 9 13 5 7 1012.2 1012.2 0.0
23/08:30am 22.1 23.8 19.3 84 1.8 WNW 9 15 5 8 1012.4 - -
23/08:00am 21.0 22.4 19.6 92 0.9 NW 11 17 6 9 1012.2 - -
23/07:30am 20.1 21.9 19.6 97 0.3 N 9 13 5 7 1011.7 - -
23/07:00am 19.9 21.6 19.4 97 0.3 NW 9 13 5 7 1011.5 - -
23/06:30am 19.9 21.2 19.4 97 0.3 WNW 11 17 6 9 1011.6 - -
23/06:00am 19.9 21.7 19.6 98 0.2 W 9 11 5 6 1011.3 1011.3 -
23/05:32am 19.7 21.1 19.5 99 0.1 WNW 11 13 6 7 1011.1 - -
23/05:30am 19.7 21.1 19.5 99 0.1 WNW 11 13 6 7 1011.1 - -
23/05:00am 19.7 21.1 19.5 99 0.1 WNW 11 15 6 8 1010.8 - -
23/04:30am 19.8 22.0 19.5 98 0.2 W 7 11 4 6 1010.8 - -
23/04:00am 19.9 22.3 19.7 99 0.1 W 6 13 3 7 1010.9 - -
23/03:30am 20.0 22.2 19.7 98 0.2 W 7 13 4 7 1010.7 - -
23/03:00am 20.2 23.1 19.9 98 0.2 SW 4 7 2 4 1011.0 1011.0 -
23/02:30am 20.1 23.7 19.8 98 0.2 CALM 0 0 0 0 1011.1 - -
23/02:23am 20.0 22.5 19.8 99 0.1 SW 6 9 3 5 1011.2 - -
23/02:00am 20.1 22.4 19.8 98 0.2 SSW 7 13 4 7 1011.5 - -
23/01:36am 20.0 21.9 19.7 98 0.2 SSW 9 11 5 6 1011.6 - -
23/01:30am 20.0 21.5 19.7 98 0.2 SSW 11 13 6 7 1011.6 - -
23/01:00am 20.2 22.1 19.7 97 0.3 SSW 9 11 5 6 1011.6 - -
23/12:30am 20.3 21.5 19.8 97 0.3 S 13 15 7 8 1012.2 - -
23/12:00am 20.5 21.7 19.9 96 0.4 S 13 17 7 9 1012.6 1012.6 -
 
Date/Time
EDT
Tmp

°C
App
Tmp
°C
Dew
Point
°C
Rel
Hum
%
Delta-T

°C
Wind Press
QNH
hPa
Press
MSL
hPa
Rain
since
9 am
mm
Dir
 
Spd
km/h
Gust
km/h
Spd
kts
Gust
kts
22/11:56pm 20.6 21.8 19.8 95 0.5 S 13 17 7 9 1012.7 - -
22/11:30pm 20.7 21.9 19.8 95 0.6 S 13 15 7 8 1012.6 - -
22/11:00pm 20.7 22.5 19.6 93 0.7 S 9 11 5 6 1012.7 - -
22/10:30pm 20.7 22.1 19.6 93 0.7 E 11 15 6 8 1012.4 - -
22/10:00pm 20.7 22.4 19.4 92 0.8 E 9 15 5 8 1012.6 - -
22/09:30pm 20.7 22.0 19.3 92 0.9 ENE 11 22 6 12 1012.5 - -
22/09:00pm 20.4 21.9 18.8 90 1.0 E 9 15 5 8 1012.4 1012.4 -
22/08:30pm 20.3 20.9 18.7 90 1.0 ENE 13 19 7 10 1011.9 - -
22/08:00pm 20.4 20.3 18.8 90 1.0 E 17 24 9 13 1012.0 - -
22/07:30pm 20.7 20.0 18.6 88 1.3 E 20 26 11 14 1011.8 - -
22/07:00pm 21.1 20.9 18.4 84 1.7 ESE 17 20 9 11 1011.6 - -
22/06:30pm 21.7 20.9 18.0 79 2.3 ESE 19 26 10 14 1011.3 - -
22/06:00pm 22.4 21.2 17.6 74 3.0 ESE 20 26 11 14 1010.9 1010.9 -
22/05:30pm 23.2 21.9 17.2 69 3.7 ESE 20 26 11 14 1010.8 - -
22/05:00pm 23.7 22.0 17.2 67 4.0 ESE 22 28 12 15 1010.5 - -
22/04:30pm 24.7 22.8 16.8 61 4.9 SE 22 30 12 16 1010.8 - -
22/04:00pm 24.9 23.3 16.6 60 5.1 ESE 20 28 11 15 1011.2 - -
22/03:30pm 25.4 23.5 16.6 58 5.4 ESE 22 28 12 15 1011.6 - -
22/03:00pm 24.7 22.1 16.0 58 5.3 SE 24 30 13 16 1012.2 1012.2 -
22/02:30pm 25.3 23.8 16.3 57 5.5 SE 19 28 10 15 1012.6 - -
22/02:00pm 25.4 24.4 16.6 58 5.4 SE 17 28 9 15 1012.9 - -
22/01:30pm 25.0 24.3 16.5 59 5.2 SE 15 22 8 12 1013.1 - -
22/01:00pm 24.0 22.9 16.3 62 4.7 SE 17 26 9 14 1013.7 - -

Latest Capital City Observations: Canberra | Sydney | Melbourne | Brisbane | Adelaide | Perth | Hobart | Darwin

Other Formats:

Comma delimited format used in spreadsheet applications
http://www.bom.gov.au/fwo/IDN60901/IDN60901.94776.axf

JavaScript Object Notation format (JSON) in row-major order
http://www.bom.gov.au/fwo/IDN60901/IDN60901.94776.json